Observations for CONINGSBY RAF, United Kingdom (EGXC)

EGXC 130850Z 11011KT 9999 FEW035 SCT250 04/00 Q1019 BLU NOSIG   
EGXC 130750Z 11012KT 9999 FEW038 SCT250 03/00 Q1019 BLU NOSIG   
EGXC 130650Z 11010KT 9999 BKN038 04/00 Q1018 BLU NOSIG  
EGXC 130550Z 10010KT 9999 BKN038 04/01 Q1018 BLU
EGXC 130450Z 12009KT 9999 BKN037 04/01 Q1018 BLU
EGXC 130350Z 12009KT 9999 BKN035 04/01 Q1019 BLU
EGXC 130250Z 12013KT 9999 BKN036 05/00 Q1019 BLU
EGXC 130150Z 12012KT 9999 BKN038 05/01 Q1019 BLU
EGXC 130050Z 12012KT 9999 FEW022 BKN035 05/02 Q1020 BLU 
EGXC 122350Z 12011KT 9999 BKN038 05/02 Q1020 BLU
EGXC 122250Z 11009KT 9999 BKN040 04/02 Q1020 BLU
EGXC 122150Z 12008KT 9999 BKN038 04/01 Q1020 BLU
EGXC 122050Z 12007KT 9999 BKN040 03/01 Q1021 BLU
EGXC 121950Z 12006KT 9999 BKN040 02/00 Q1021 BLU
EGXC 121850Z 10007KT 9999 FEW042 01/M01 Q1021 BLU   
EGXC 121750Z 14005KT CAVOK 01/M01 Q1022 BLU 
EGXC 121650Z 13007KT CAVOK 03/M01 Q1022 BLU 
EGXC 121550Z 13007KT CAVOK 03/00 Q1022 BLU NOSIG
EGXC 121450Z 14007KT 9999 FEW020 SCT250 06/01 Q1022 BLU NOSIG   
EGXC 121350Z 13008KT 9999 FEW018 SCT260 07/02 Q1022 BLU NOSIG   
EGXC 121250Z 15009KT 9999 FEW018 SCT250 07/03 Q1023 BLU NOSIG   
EGXC 121150Z 16009KT CAVOK 07/02 Q1023 BLU NOSIG
EGXC 121050Z 15008KT CAVOK 06/03 Q1023 BLU NOSIG
EGXC 120950Z 14008KT CAVOK 05/03 Q1023 BLU NOSIG
EGXC 120850Z 12007KT CAVOK 04/03 Q1023 BLU NOSIG